createdAt,value
2022-10-09T00:01:06.477Z,94.11
2022-10-09T00:04:14.378Z,92.99
2022-10-09T00:07:16.406Z,91.80
2022-10-09T00:10:18.784Z,91.36
2022-10-09T00:13:20.807Z,91.39
2022-10-09T00:16:24.555Z,90.82
2022-10-09T00:19:26.897Z,90.94
2022-10-09T00:22:29.283Z,90.72
2022-10-09T00:25:31.679Z,90.72
2022-10-09T00:28:38.321Z,90.46
2022-10-09T00:31:40.764Z,90.19
2022-10-09T00:34:43.103Z,90.22
2022-10-09T00:37:45.107Z,89.82
2022-10-09T00:40:47.373Z,90.16
2022-10-09T00:43:56.141Z,90.28
2022-10-09T00:46:58.400Z,91.58
2022-10-09T00:50:07.316Z,92.70
2022-10-09T00:53:12.826Z,94.08
2022-10-09T00:56:14.902Z,94.46
2022-10-09T00:59:17.974Z,94.69
2022-10-09T01:02:20.230Z,94.79
2022-10-09T01:05:29.466Z,95.59
2022-10-09T01:08:55.961Z,94.74
2022-10-09T01:12:18.509Z,93.92
2022-10-09T01:15:46.546Z,93.74
2022-10-09T01:19:13.825Z,93.81
2022-10-09T01:22:53.358Z,93.71
2022-10-09T01:25:58.698Z,94.46
2022-10-09T01:29:05.519Z,95.18
2022-10-09T01:32:09.776Z,95.28
2022-10-09T01:35:12.977Z,95.68
2022-10-09T01:38:16.166Z,95.41
2022-10-09T01:41:18.612Z,95.98
2022-10-09T01:44:27.416Z,95.46
2022-10-09T01:47:29.419Z,94.99
2022-10-09T01:50:34.950Z,94.67
2022-10-09T01:53:36.977Z,94.56
2022-10-09T01:56:39.664Z,94.42
2022-10-09T01:59:44.518Z,94.79
2022-10-09T02:02:47.668Z,94.85
2022-10-09T02:05:51.716Z,95.09
2022-10-09T02:08:55.636Z,95.11
2022-10-09T02:12:01.117Z,95.39
2022-10-09T02:15:03.490Z,95.21
2022-10-09T02:18:15.795Z,96.02
2022-10-09T02:21:23.768Z,95.71
2022-10-09T02:24:26.007Z,96.03
2022-10-09T02:27:28.466Z,95.92
2022-10-09T02:30:37.783Z,95.69
2022-10-09T02:33:40.083Z,95.83
2022-10-09T02:36:42.135Z,96.63
2022-10-09T02:39:44.661Z,95.92
2022-10-09T02:42:47.139Z,95.19
2022-10-09T02:45:49.499Z,95.95
2022-10-09T02:48:51.608Z,96.97
2022-10-09T02:51:53.748Z,96.78
2022-10-09T02:54:55.798Z,96.16
2022-10-09T02:57:58.118Z,96.73
2022-10-09T03:01:00.391Z,96.91
2022-10-09T03:04:03.085Z,96.12
2022-10-09T03:07:05.443Z,95.62
2022-10-09T03:10:07.921Z,95.88
2022-10-09T03:13:10.093Z,96.26
2022-10-09T03:16:15.559Z,96.13
2022-10-09T03:19:17.715Z,95.81
2022-10-09T03:22:19.928Z,95.38
2022-10-09T03:25:21.953Z,94.86
2022-10-09T03:28:24.282Z,94.74
2022-10-09T03:34:49.571Z,96.49
2022-10-09T03:37:51.719Z,96.54
2022-10-09T03:40:54.044Z,96.52
2022-10-09T03:43:56.129Z,95.92
2022-10-09T03:46:58.448Z,96.14
2022-10-09T03:50:00.486Z,96.75
2022-10-09T03:53:03.858Z,97.82
2022-10-09T03:56:06.101Z,97.76
2022-10-09T03:59:09.677Z,97.93
2022-10-09T04:02:11.699Z,98.24
2022-10-09T04:05:14.417Z,98.08
2022-10-09T04:08:16.434Z,98.02
2022-10-09T04:11:19.115Z,98.18
2022-10-09T04:14:21.098Z,98.04
2022-10-09T04:17:23.278Z,98.15
2022-10-09T04:20:25.250Z,98.86
2022-10-09T04:23:28.361Z,98.96
2022-10-09T04:26:30.351Z,98.55
2022-10-09T04:29:32.628Z,99.25
2022-10-09T04:32:34.642Z,99.35
2022-10-09T04:35:36.881Z,98.78
2022-10-09T04:38:38.838Z,98.41
2022-10-09T04:41:41.087Z,98.12
2022-10-09T04:44:43.084Z,98.27
2022-10-09T04:47:45.350Z,97.78
2022-10-09T04:50:47.593Z,97.58
2022-10-09T04:53:50.092Z,97.14
2022-10-09T04:56:52.205Z,97.23
2022-10-09T04:59:54.645Z,95.96
2022-10-09T05:02:56.674Z,96.32
2022-10-09T05:06:02.858Z,95.18
2022-10-09T05:09:04.968Z,94.37
2022-10-09T05:12:07.355Z,94.27
2022-10-09T05:15:09.918Z,94.20
2022-10-09T05:18:12.088Z,93.84
2022-10-09T05:21:14.972Z,93.44
2022-10-09T05:24:17.216Z,93.36
2022-10-09T05:27:19.489Z,93.72
2022-10-09T05:30:21.692Z,93.25
2022-10-09T05:33:23.877Z,93.06
2022-10-09T05:36:26.102Z,93.31
2022-10-09T05:39:28.139Z,92.83
2022-10-09T05:42:30.357Z,92.61
2022-10-09T05:45:32.469Z,93.00
2022-10-09T05:48:35.405Z,92.82
2022-10-09T05:51:39.078Z,92.86
2022-10-09T05:54:42.017Z,92.53
2022-10-09T05:57:44.273Z,91.85
2022-10-09T06:00:46.502Z,91.19
2022-10-09T06:03:50.905Z,91.66
2022-10-09T06:06:53.105Z,91.39
2022-10-09T06:09:55.752Z,91.09
2022-10-09T06:12:57.964Z,91.62
2022-10-09T06:16:00.418Z,91.09
2022-10-09T06:19:03.203Z,90.43
2022-10-09T06:22:05.621Z,89.67
2022-10-09T06:25:08.377Z,90.38
2022-10-09T06:28:10.430Z,89.77
2022-10-09T06:31:15.151Z,90.07
2022-10-09T06:34:17.542Z,89.32
2022-10-09T06:37:19.796Z,89.73
2022-10-09T06:40:22.324Z,89.95
2022-10-09T06:43:24.508Z,89.71
2022-10-09T06:46:32.371Z,89.80
2022-10-09T06:49:34.692Z,88.70
2022-10-09T06:52:36.901Z,89.34
2022-10-09T06:55:39.201Z,89.00
2022-10-09T06:58:41.688Z,88.31
2022-10-09T07:01:44.149Z,88.02
2022-10-09T07:04:47.403Z,88.79
2022-10-09T07:07:49.864Z,87.65
2022-10-09T07:10:52.298Z,88.30
2022-10-09T07:13:59.711Z,88.90
2022-10-09T07:17:02.688Z,87.29
2022-10-09T07:20:05.373Z,87.56
2022-10-09T07:23:07.868Z,87.18
2022-10-09T07:26:22.044Z,86.63
2022-10-09T07:29:24.123Z,86.28
2022-10-09T07:32:26.365Z,86.82
2022-10-09T07:35:28.409Z,86.89
2022-10-09T07:38:31.051Z,86.91
2022-10-09T07:41:33.331Z,86.57
2022-10-09T07:44:35.689Z,86.88
2022-10-09T07:47:37.791Z,87.52
2022-10-09T07:50:40.508Z,85.80
2022-10-09T07:53:44.893Z,85.78
2022-10-09T07:56:47.273Z,85.29
2022-10-09T07:59:49.516Z,85.16
2022-10-09T08:02:52.548Z,84.24
2022-10-09T08:05:55.988Z,84.06
2022-10-09T08:09:00.150Z,84.61
2022-10-09T08:12:02.269Z,83.81
2022-10-09T08:15:05.080Z,83.92
2022-10-09T08:18:07.489Z,83.58
2022-10-09T08:21:13.561Z,84.35
2022-10-09T08:24:15.862Z,83.58
2022-10-09T08:27:18.152Z,83.97
2022-10-09T08:30:20.285Z,83.12
2022-10-09T08:33:23.533Z,82.01
2022-10-09T08:36:26.475Z,82.79
2022-10-09T08:39:31.051Z,81.63
2022-10-09T08:42:41.471Z,81.35
2022-10-09T08:45:47.985Z,80.43
2022-10-09T08:48:50.873Z,81.76
2022-10-09T08:51:54.501Z,80.68
2022-10-09T08:54:59.795Z,80.90
2022-10-09T08:58:06.268Z,79.15
2022-10-09T09:01:14.587Z,79.06
2022-10-09T09:04:38.529Z,79.23
2022-10-09T09:07:40.741Z,77.70
2022-10-09T09:10:54.489Z,77.40
2022-10-09T09:14:24.083Z,78.34
2022-10-09T09:17:38.132Z,78.43
2022-10-09T09:20:53.572Z,79.14
2022-10-09T09:23:59.706Z,78.90
2022-10-09T09:27:04.680Z,78.23
2022-10-09T09:30:12.909Z,76.35
2022-10-09T09:33:24.473Z,77.03
2022-10-09T09:36:51.862Z,76.20
2022-10-09T09:40:35.092Z,76.99
2022-10-09T09:43:24.009Z,77.34
2022-10-09T09:46:29.318Z,77.65
2022-10-09T09:49:32.069Z,77.85
2022-10-09T09:52:40.589Z,77.68
2022-10-09T09:55:42.930Z,76.99
2022-10-09T09:58:50.326Z,77.57
2022-10-09T10:02:12.187Z,75.59
2022-10-09T10:05:26.277Z,75.57
2022-10-09T10:08:33.117Z,77.25
2022-10-09T10:11:35.799Z,76.32
2022-10-09T10:14:38.191Z,75.97
2022-10-09T10:17:40.188Z,75.55
2022-10-09T10:20:47.928Z,75.90
2022-10-09T10:27:15.971Z,75.88
2022-10-09T10:30:19.590Z,76.38
2022-10-09T10:33:25.501Z,75.29
2022-10-09T10:36:28.622Z,75.98
2022-10-09T10:39:53.021Z,76.24
2022-10-09T10:43:14.927Z,76.13
2022-10-09T10:46:28.951Z,76.63
2022-10-09T10:49:33.859Z,77.26
2022-10-09T10:53:07.823Z,77.73
2022-10-09T10:56:27.561Z,77.69
2022-10-09T10:59:48.703Z,77.41
2022-10-09T11:03:12.421Z,77.26
2022-10-09T11:06:23.850Z,76.67
2022-10-09T11:09:50.617Z,77.05
2022-10-09T11:12:57.662Z,76.06
2022-10-09T11:16:37.130Z,75.01
2022-10-09T11:20:16.707Z,75.04
2022-10-09T11:23:51.062Z,73.96
2022-10-09T11:27:14.125Z,74.22
2022-10-09T11:30:17.991Z,75.25
2022-10-09T11:33:35.746Z,74.59
2022-10-09T11:36:42.692Z,74.92
2022-10-09T11:39:45.343Z,74.77
2022-10-09T11:42:59.284Z,73.16
2022-10-09T11:46:05.266Z,72.74
2022-10-09T11:49:07.289Z,71.63
2022-10-09T11:52:46.706Z,72.74
2022-10-09T11:55:48.779Z,71.26
2022-10-09T11:58:58.652Z,69.74
2022-10-09T12:02:25.828Z,69.46
2022-10-09T12:05:47.719Z,68.21
2022-10-09T12:08:58.943Z,69.19
2022-10-09T12:12:17.537Z,66.78
2022-10-09T12:15:57.599Z,66.90
2022-10-09T12:19:12.417Z,67.45
2022-10-09T12:22:22.004Z,67.84
2022-10-09T12:25:28.966Z,67.93
2022-10-09T12:28:59.917Z,66.80
2022-10-09T12:32:06.936Z,65.38
2022-10-09T12:35:29.432Z,66.63
2022-10-09T12:38:32.270Z,67.74
2022-10-09T12:41:34.594Z,68.33
2022-10-09T12:44:40.000Z,67.44
2022-10-09T12:47:43.730Z,68.18
2022-10-09T12:50:46.994Z,68.37
2022-10-09T12:53:51.564Z,68.60
2022-10-09T12:56:55.697Z,69.73
2022-10-09T12:59:58.273Z,69.84
2022-10-09T13:03:01.930Z,69.06
2022-10-09T13:06:13.519Z,69.38
2022-10-09T13:09:28.438Z,69.15
2022-10-09T13:12:31.455Z,70.51
2022-10-09T13:15:36.414Z,68.94
2022-10-09T13:18:38.612Z,70.25
2022-10-09T13:21:40.828Z,70.65
2022-10-09T13:24:43.005Z,70.44
2022-10-09T13:27:45.641Z,68.33
2022-10-09T13:30:47.960Z,68.48
2022-10-09T13:33:50.953Z,68.06
2022-10-09T13:36:53.425Z,69.38
2022-10-09T13:39:58.188Z,67.87
2022-10-09T13:43:03.015Z,65.55
2022-10-09T13:46:05.476Z,64.17
2022-10-09T13:49:07.621Z,62.52
2022-10-09T13:52:10.146Z,62.46
2022-10-09T13:55:12.798Z,62.50
2022-10-09T13:58:15.081Z,63.25
2022-10-09T14:01:17.457Z,63.49
2022-10-09T14:04:20.182Z,64.19
2022-10-09T14:07:22.437Z,64.97
2022-10-09T14:10:24.866Z,64.72
2022-10-09T14:13:27.613Z,64.09
2022-10-09T14:16:30.690Z,65.69
2022-10-09T14:19:32.947Z,65.72
2022-10-09T14:22:35.647Z,65.68
2022-10-09T14:25:37.758Z,65.73
2022-10-09T14:28:40.328Z,62.49
2022-10-09T14:31:42.591Z,63.10
2022-10-09T14:34:44.892Z,64.17
2022-10-09T14:37:46.962Z,64.75
2022-10-09T14:40:49.340Z,63.87
2022-10-09T14:43:57.004Z,63.00
2022-10-09T14:46:59.343Z,63.15
2022-10-09T14:50:01.513Z,65.34
2022-10-09T14:53:03.805Z,63.57
2022-10-09T14:56:09.614Z,64.34
2022-10-09T14:59:12.224Z,63.54
2022-10-09T15:02:18.177Z,65.15
2022-10-09T15:05:20.426Z,65.59
2022-10-09T15:08:22.480Z,65.86
2022-10-09T15:11:24.944Z,66.11
2022-10-09T15:14:27.107Z,66.33
2022-10-09T15:17:29.410Z,66.45
2022-10-09T15:20:31.565Z,66.48
2022-10-09T15:23:33.954Z,67.02
2022-10-09T15:26:39.043Z,66.85
2022-10-09T15:29:41.323Z,67.98
2022-10-09T15:32:43.590Z,67.96
2022-10-09T15:35:46.020Z,68.12
2022-10-09T15:38:48.740Z,68.79
2022-10-09T15:41:51.116Z,69.13
2022-10-09T15:44:53.350Z,69.71
2022-10-09T15:47:55.673Z,69.92
2022-10-09T15:50:57.738Z,69.17
2022-10-09T15:54:01.608Z,69.98
2022-10-09T15:57:03.738Z,69.34
2022-10-09T16:00:06.809Z,70.84
2022-10-09T16:03:11.182Z,70.60
2022-10-09T16:06:30.352Z,70.62
2022-10-09T16:09:36.339Z,70.02
2022-10-09T16:12:38.675Z,69.95
2022-10-09T16:15:45.011Z,69.75
2022-10-09T16:18:47.860Z,70.03
2022-10-09T16:21:51.138Z,69.67
2022-10-09T16:24:54.207Z,70.82
2022-10-09T16:27:56.509Z,70.69
2022-10-09T16:30:58.823Z,70.84
2022-10-09T16:34:05.680Z,71.23
2022-10-09T16:37:07.953Z,71.03
2022-10-09T16:40:10.909Z,71.30
2022-10-09T16:43:13.521Z,72.11
2022-10-09T16:46:28.748Z,70.88
2022-10-09T16:49:31.442Z,70.27
2022-10-09T16:52:33.831Z,72.03
2022-10-09T16:55:36.344Z,73.44
2022-10-09T16:58:39.011Z,72.57
2022-10-09T17:01:45.119Z,72.65
2022-10-09T17:04:47.296Z,72.57
2022-10-09T17:07:49.868Z,74.02
2022-10-09T17:10:52.108Z,73.60
2022-10-09T17:13:57.804Z,75.38
2022-10-09T17:16:59.805Z,74.33
2022-10-09T17:20:02.085Z,74.11
2022-10-09T17:23:05.050Z,74.53
2022-10-09T17:26:09.293Z,76.00
2022-10-09T17:29:12.864Z,75.99
2022-10-09T17:32:15.126Z,75.76
2022-10-09T17:35:17.549Z,75.65
2022-10-09T17:38:19.852Z,75.50
2022-10-09T17:41:23.978Z,76.25
2022-10-09T17:44:28.578Z,75.07
2022-10-09T17:47:30.591Z,75.49
2022-10-09T17:50:33.235Z,75.32
2022-10-09T17:53:35.332Z,76.93
2022-10-09T17:56:38.526Z,76.99
2022-10-09T17:59:40.829Z,77.43
2022-10-09T18:02:43.097Z,76.09
2022-10-09T18:05:48.447Z,75.76
2022-10-09T18:09:01.345Z,76.39
2022-10-09T18:12:03.674Z,77.22
2022-10-09T18:15:06.496Z,76.67
2022-10-09T18:18:10.151Z,76.58
2022-10-09T18:21:17.123Z,76.31
2022-10-09T18:24:19.361Z,76.74
2022-10-09T18:27:23.913Z,76.65
2022-10-09T18:30:27.770Z,76.98
2022-10-09T18:33:30.605Z,78.64
2022-10-09T18:36:34.345Z,77.97
2022-10-09T18:39:36.988Z,78.12
2022-10-09T18:42:40.627Z,79.05
2022-10-09T18:45:45.599Z,78.47
2022-10-09T18:48:54.684Z,77.43
2022-10-09T18:51:59.238Z,77.57
2022-10-09T18:55:01.638Z,78.72
2022-10-09T18:58:04.934Z,78.44
2022-10-09T19:01:07.798Z,78.16
2022-10-09T19:04:10.450Z,78.24
2022-10-09T19:07:12.684Z,78.19
2022-10-09T19:10:15.460Z,80.05
2022-10-09T19:13:18.076Z,80.35
2022-10-09T19:16:21.053Z,80.50
2022-10-09T19:19:23.196Z,79.74
2022-10-09T19:22:26.173Z,79.28
2022-10-09T19:25:28.440Z,79.45
2022-10-09T19:28:32.882Z,80.06
2022-10-09T19:31:35.757Z,78.47
2022-10-09T19:34:38.032Z,78.60
2022-10-09T19:37:40.154Z,78.63
2022-10-09T19:40:42.723Z,78.82
2022-10-09T19:43:45.077Z,78.75
2022-10-09T19:46:48.308Z,79.50
2022-10-09T19:49:50.585Z,79.37
2022-10-09T19:52:53.010Z,80.33
2022-10-09T19:55:55.332Z,80.32
2022-10-09T19:58:58.545Z,80.10
2022-10-09T20:02:00.999Z,79.47
2022-10-09T20:05:04.738Z,79.39
2022-10-09T20:08:07.775Z,80.00
2022-10-09T20:11:11.628Z,79.74
2022-10-09T20:14:13.858Z,79.00
2022-10-09T20:17:17.360Z,79.20
2022-10-09T20:20:19.512Z,79.70
2022-10-09T20:23:22.017Z,80.63
2022-10-09T20:26:24.580Z,79.58
2022-10-09T20:29:28.116Z,79.60
2022-10-09T20:32:31.455Z,79.95
2022-10-09T20:35:42.054Z,79.97
2022-10-09T20:38:44.230Z,81.04
2022-10-09T20:41:46.534Z,82.13
2022-10-09T20:44:48.624Z,81.27
2022-10-09T20:47:50.897Z,81.16
2022-10-09T20:50:53.165Z,81.71
2022-10-09T20:53:58.506Z,80.66
2022-10-09T20:57:00.863Z,81.07
2022-10-09T21:00:04.742Z,80.95
2022-10-09T21:03:11.622Z,80.46
2022-10-09T21:06:17.542Z,79.99
2022-10-09T21:09:19.557Z,80.49
2022-10-09T21:12:21.782Z,80.35
2022-10-09T21:15:23.828Z,80.62
2022-10-09T21:18:26.137Z,81.51
2022-10-09T21:21:29.117Z,81.36
2022-10-09T21:24:31.345Z,83.10
2022-10-09T21:27:33.368Z,82.29
2022-10-09T21:30:41.421Z,81.16
2022-10-09T21:33:44.105Z,82.32
2022-10-09T21:37:16.409Z,83.48
2022-10-09T21:40:12.505Z,82.36
2022-10-09T21:43:15.017Z,82.25
2022-10-09T21:46:17.059Z,82.55
2022-10-09T21:49:23.160Z,83.38
2022-10-09T21:52:25.283Z,82.17
2022-10-09T21:55:27.493Z,81.25
2022-10-09T21:58:29.565Z,81.45
2022-10-09T22:01:33.622Z,81.70
2022-10-09T22:04:35.848Z,81.97
2022-10-09T22:07:38.317Z,81.63
2022-10-09T22:10:42.113Z,81.24
2022-10-09T22:13:44.682Z,81.69
2022-10-09T22:16:46.726Z,82.06
2022-10-09T22:19:49.052Z,81.89
2022-10-09T22:22:51.601Z,81.36
2022-10-09T22:25:58.885Z,80.79
2022-10-09T22:29:01.326Z,81.51
2022-10-09T22:32:03.829Z,81.71
2022-10-09T22:35:06.264Z,81.45
2022-10-09T22:38:08.627Z,82.07
2022-10-09T22:41:18.612Z,81.96
2022-10-09T22:44:21.006Z,82.53
2022-10-09T22:47:22.947Z,83.07
2022-10-09T22:50:25.186Z,81.58
2022-10-09T22:53:27.126Z,81.70
2022-10-09T22:56:40.476Z,83.16
2022-10-09T22:59:42.815Z,82.92
2022-10-09T23:02:45.070Z,82.60
2022-10-09T23:05:47.120Z,83.73
2022-10-09T23:08:49.826Z,83.46
2022-10-09T23:11:52.222Z,82.35
2022-10-09T23:14:54.592Z,82.72
2022-10-09T23:17:56.594Z,83.17
2022-10-09T23:21:03.346Z,83.35
2022-10-09T23:24:06.412Z,82.39
2022-10-09T23:27:08.737Z,82.05
2022-10-09T23:30:11.204Z,82.40
2022-10-09T23:33:13.443Z,83.35
2022-10-09T23:36:18.694Z,83.75
2022-10-09T23:39:21.098Z,83.95
2022-10-09T23:42:23.086Z,83.93
2022-10-09T23:45:25.362Z,84.43
2022-10-09T23:48:27.974Z,84.01
2022-10-09T23:51:30.518Z,84.03
2022-10-09T23:54:32.470Z,83.88
2022-10-09T23:57:36.956Z,83.86
